createdAt,value
2022-12-31T00:01:10.467Z,69.24
2022-12-31T00:03:39.815Z,68.42
2022-12-31T00:06:16.905Z,69.47
2022-12-31T00:08:47.128Z,68.88
2022-12-31T00:11:15.946Z,68.21
2022-12-31T00:13:46.764Z,66.75
2022-12-31T00:16:17.210Z,69.36
2022-12-31T00:18:47.015Z,69.84
2022-12-31T00:21:16.491Z,68.38
2022-12-31T00:23:46.581Z,68.39
2022-12-31T00:26:16.555Z,68.79
2022-12-31T00:28:45.848Z,68.13
2022-12-31T00:31:16.980Z,68.17
2022-12-31T00:33:45.923Z,67.91
2022-12-31T00:36:16.351Z,67.06
2022-12-31T00:38:48.618Z,66.93
2022-12-31T00:41:18.417Z,67.07
2022-12-31T00:43:46.722Z,67.81
2022-12-31T00:46:15.745Z,69.24
2022-12-31T00:48:44.412Z,69.10
2022-12-31T00:51:15.096Z,69.86
2022-12-31T00:53:43.698Z,69.47
2022-12-31T00:56:17.261Z,70.91
2022-12-31T00:58:46.209Z,69.33
2022-12-31T01:01:18.415Z,69.46
2022-12-31T01:03:48.046Z,68.46
2022-12-31T01:06:17.066Z,67.05
2022-12-31T01:08:45.905Z,66.33
2022-12-31T01:11:22.716Z,67.01
2022-12-31T01:13:53.965Z,66.54
2022-12-31T01:16:23.963Z,66.48
2022-12-31T01:18:52.707Z,67.97
2022-12-31T01:21:22.079Z,66.75
2022-12-31T01:23:50.742Z,66.59
2022-12-31T01:26:21.261Z,67.75
2022-12-31T01:28:49.853Z,69.54
2022-12-31T01:31:20.244Z,68.08
2022-12-31T01:33:49.352Z,68.30
2022-12-31T01:36:25.222Z,68.89
2022-12-31T01:38:54.785Z,69.61
2022-12-31T01:41:27.880Z,69.13
2022-12-31T01:43:59.303Z,69.17
2022-12-31T01:46:40.385Z,68.69
2022-12-31T01:49:15.647Z,69.35
2022-12-31T01:51:46.948Z,68.89
2022-12-31T01:54:18.608Z,68.58
2022-12-31T01:56:51.811Z,69.03
2022-12-31T01:59:22.028Z,70.27
2022-12-31T02:01:54.080Z,68.61
2022-12-31T02:04:25.219Z,68.97
2022-12-31T02:06:56.696Z,66.58
2022-12-31T02:09:25.412Z,68.18
2022-12-31T02:11:55.552Z,67.57
2022-12-31T02:14:30.371Z,68.90
2022-12-31T02:17:04.702Z,66.79
2022-12-31T02:20:13.043Z,68.04
2022-12-31T02:23:12.216Z,67.85
2022-12-31T02:26:06.209Z,68.06
2022-12-31T02:28:56.837Z,68.09
2022-12-31T02:31:32.069Z,69.72
2022-12-31T02:34:07.503Z,68.55
2022-12-31T02:36:40.268Z,69.07
2022-12-31T02:39:10.639Z,68.81
2022-12-31T02:41:51.319Z,68.83
2022-12-31T02:44:24.715Z,68.37
2022-12-31T02:47:11.804Z,68.02
2022-12-31T02:49:49.211Z,68.75
2022-12-31T02:52:26.639Z,69.06
2022-12-31T02:55:04.252Z,68.18
2022-12-31T02:57:40.165Z,69.03
2022-12-31T03:00:30.227Z,69.74
2022-12-31T03:03:31.863Z,68.80
2022-12-31T03:06:03.281Z,67.65
2022-12-31T03:08:32.075Z,67.73
2022-12-31T03:11:20.144Z,68.01
2022-12-31T03:13:47.397Z,66.71
2022-12-31T03:16:15.902Z,68.21
2022-12-31T03:18:58.130Z,66.52
2022-12-31T03:21:45.068Z,67.87
2022-12-31T03:24:30.844Z,67.34
2022-12-31T03:26:58.990Z,65.89
2022-12-31T03:29:27.317Z,68.45
2022-12-31T03:31:55.669Z,66.39
2022-12-31T03:34:23.805Z,66.58
2022-12-31T03:36:53.354Z,65.33
2022-12-31T03:39:21.423Z,64.75
2022-12-31T03:41:49.793Z,64.79
2022-12-31T03:44:18.915Z,65.90
2022-12-31T03:46:47.452Z,66.77
2022-12-31T03:49:15.850Z,67.56
2022-12-31T03:51:44.118Z,67.46
2022-12-31T03:54:13.801Z,69.46
2022-12-31T03:56:42.325Z,69.53
2022-12-31T03:59:10.487Z,68.57
2022-12-31T04:01:38.759Z,69.35
2022-12-31T04:04:06.977Z,68.63
2022-12-31T04:06:35.937Z,67.59
2022-12-31T04:09:04.316Z,66.61
2022-12-31T04:11:33.985Z,67.99
2022-12-31T04:14:02.473Z,67.42
2022-12-31T04:16:30.944Z,67.85
2022-12-31T04:18:59.217Z,67.49
2022-12-31T04:21:33.103Z,68.48
2022-12-31T04:24:03.850Z,68.56
2022-12-31T04:26:33.859Z,68.66
2022-12-31T04:29:02.264Z,66.48
2022-12-31T04:31:30.598Z,65.66
2022-12-31T04:33:58.757Z,67.72
2022-12-31T04:36:27.001Z,68.26
2022-12-31T04:38:56.146Z,67.70
2022-12-31T04:41:27.232Z,70.02
2022-12-31T04:43:59.090Z,68.49
2022-12-31T04:46:29.729Z,69.39
2022-12-31T04:48:57.934Z,70.08
2022-12-31T04:51:28.976Z,68.71
2022-12-31T04:53:57.711Z,70.30
2022-12-31T04:56:26.886Z,69.68
2022-12-31T04:58:56.803Z,70.09
2022-12-31T05:01:25.432Z,69.40
2022-12-31T05:03:53.698Z,69.92
2022-12-31T05:06:24.579Z,68.23
2022-12-31T05:08:53.002Z,68.01
2022-12-31T05:11:21.866Z,68.20
2022-12-31T05:13:50.843Z,68.27
2022-12-31T05:16:20.382Z,68.61
2022-12-31T05:18:49.118Z,68.69
2022-12-31T05:21:21.419Z,68.45
2022-12-31T05:23:50.287Z,69.55
2022-12-31T05:26:18.564Z,69.63
2022-12-31T05:28:47.129Z,69.72
2022-12-31T05:31:15.760Z,70.00
2022-12-31T05:33:45.676Z,69.74
2022-12-31T05:36:14.786Z,71.41
2022-12-31T05:38:44.164Z,69.77
2022-12-31T05:41:12.751Z,70.58
2022-12-31T05:43:40.971Z,70.27
2022-12-31T05:46:09.996Z,69.61
2022-12-31T05:48:38.454Z,70.12
2022-12-31T05:51:08.327Z,70.19
2022-12-31T05:53:36.966Z,70.37
2022-12-31T05:56:05.672Z,71.40
2022-12-31T05:58:34.041Z,70.83
2022-12-31T06:01:02.259Z,70.41
2022-12-31T06:03:30.827Z,71.56
2022-12-31T06:05:59.157Z,70.53
2022-12-31T06:08:28.956Z,70.08
2022-12-31T06:10:57.160Z,70.52
2022-12-31T06:13:25.335Z,69.62
2022-12-31T06:15:53.536Z,70.83
2022-12-31T06:18:21.778Z,70.17
2022-12-31T06:20:50.017Z,71.07
2022-12-31T06:23:18.654Z,71.22
2022-12-31T06:25:48.205Z,70.97
2022-12-31T06:28:20.289Z,71.24
2022-12-31T06:30:49.315Z,71.09
2022-12-31T06:33:18.237Z,71.81
2022-12-31T06:35:46.498Z,71.60
2022-12-31T06:38:14.556Z,71.45
2022-12-31T06:40:43.071Z,70.44
2022-12-31T06:43:12.821Z,70.62
2022-12-31T06:45:42.479Z,70.86
2022-12-31T06:48:10.723Z,71.68
2022-12-31T06:50:39.500Z,71.76
2022-12-31T06:53:08.189Z,71.91
2022-12-31T06:55:37.497Z,71.57
2022-12-31T06:58:06.855Z,71.77
2022-12-31T07:00:37.241Z,71.51
2022-12-31T07:03:20.965Z,70.95
2022-12-31T07:05:53.695Z,71.00
2022-12-31T07:08:42.074Z,71.18
2022-12-31T07:11:19.777Z,71.12
2022-12-31T07:14:03.010Z,70.21
2022-12-31T07:16:41.192Z,70.24
2022-12-31T07:19:24.722Z,69.84
2022-12-31T07:21:55.025Z,69.04
2022-12-31T07:24:23.965Z,69.08
2022-12-31T07:27:06.393Z,70.41
2022-12-31T07:29:48.131Z,69.70
2022-12-31T07:32:31.689Z,69.78
2022-12-31T07:35:11.013Z,69.74
2022-12-31T07:37:46.521Z,69.60
2022-12-31T07:40:20.956Z,69.03
2022-12-31T07:43:05.634Z,70.25
2022-12-31T07:45:39.507Z,69.66
2022-12-31T07:48:23.083Z,69.74
2022-12-31T07:50:54.509Z,69.71
2022-12-31T07:53:23.932Z,69.65
2022-12-31T07:55:56.893Z,68.14
2022-12-31T07:58:33.777Z,68.99
2022-12-31T08:01:04.215Z,68.58
2022-12-31T08:03:47.832Z,69.23
2022-12-31T08:06:26.127Z,69.03
2022-12-31T08:09:03.839Z,68.61
2022-12-31T08:11:39.485Z,69.03
2022-12-31T08:14:11.292Z,69.00
2022-12-31T08:16:40.633Z,67.72
2022-12-31T08:19:23.835Z,67.27
2022-12-31T08:22:14.766Z,62.86
2022-12-31T08:24:55.932Z,62.79
2022-12-31T08:27:33.237Z,64.90
2022-12-31T08:30:07.181Z,66.62
2022-12-31T08:32:43.373Z,64.88
2022-12-31T08:35:26.379Z,65.40
2022-12-31T08:38:02.072Z,65.10
2022-12-31T08:40:48.916Z,65.61
2022-12-31T08:43:32.306Z,65.45
2022-12-31T08:46:01.978Z,65.72
2022-12-31T08:48:38.854Z,65.12
2022-12-31T08:51:16.675Z,64.83
2022-12-31T08:53:45.791Z,67.01
2022-12-31T08:56:26.248Z,67.02
2022-12-31T08:59:14.932Z,65.41
2022-12-31T09:02:02.123Z,67.42
2022-12-31T09:04:42.331Z,64.68
2022-12-31T09:07:14.993Z,64.10
2022-12-31T09:09:53.648Z,65.31
2022-12-31T09:12:30.071Z,66.87
2022-12-31T09:15:05.112Z,66.81
2022-12-31T09:17:49.177Z,67.29
2022-12-31T09:20:24.872Z,66.14
2022-12-31T09:22:56.051Z,66.20
2022-12-31T09:25:26.758Z,66.16
2022-12-31T09:28:09.659Z,64.84
2022-12-31T09:30:47.274Z,65.69
2022-12-31T09:33:27.217Z,65.72
2022-12-31T09:35:59.412Z,65.13
2022-12-31T09:38:37.472Z,64.67
2022-12-31T09:41:16.737Z,65.90
2022-12-31T09:44:24.901Z,65.07
2022-12-31T09:47:30.034Z,66.98
2022-12-31T09:50:25.190Z,65.26
2022-12-31T09:53:09.857Z,65.46
2022-12-31T09:55:49.677Z,65.42
2022-12-31T09:58:31.483Z,65.80
2022-12-31T10:01:08.053Z,65.73
2022-12-31T10:03:50.397Z,65.79
2022-12-31T10:06:24.496Z,66.17
2022-12-31T10:09:09.808Z,65.78
2022-12-31T10:12:04.673Z,66.88
2022-12-31T10:14:53.935Z,67.19
2022-12-31T10:17:37.914Z,67.50
2022-12-31T10:20:37.760Z,67.11
2022-12-31T10:23:28.511Z,65.94
2022-12-31T10:26:22.379Z,66.30
2022-12-31T10:28:57.055Z,65.30
2022-12-31T10:31:39.406Z,65.40
2022-12-31T10:34:20.179Z,64.81
2022-12-31T10:37:03.599Z,62.84
2022-12-31T10:39:47.018Z,63.71
2022-12-31T10:42:53.192Z,63.14
2022-12-31T10:45:53.379Z,62.31
2022-12-31T10:49:00.364Z,63.46
2022-12-31T10:52:00.832Z,62.34
2022-12-31T10:55:10.594Z,61.73
2022-12-31T10:58:04.740Z,62.59
2022-12-31T11:00:41.904Z,62.90
2022-12-31T11:04:03.135Z,62.84
2022-12-31T11:07:16.254Z,62.90
2022-12-31T11:10:04.478Z,61.92
2022-12-31T11:13:00.617Z,63.71
2022-12-31T11:15:50.176Z,63.04
2022-12-31T11:18:32.338Z,62.52
2022-12-31T11:21:18.363Z,63.83
2022-12-31T11:23:57.763Z,63.05
2022-12-31T11:26:40.937Z,63.46
2022-12-31T11:29:25.541Z,64.23
2022-12-31T11:32:11.471Z,63.81
2022-12-31T11:35:07.889Z,63.53
2022-12-31T11:37:45.735Z,63.70
2022-12-31T11:40:43.203Z,64.42
2022-12-31T11:43:23.550Z,61.64
2022-12-31T11:46:19.673Z,61.71
2022-12-31T11:49:08.987Z,61.68
2022-12-31T11:51:53.956Z,62.30
2022-12-31T11:54:43.732Z,63.34
2022-12-31T11:57:22.129Z,62.47
2022-12-31T11:59:53.246Z,62.47
2022-12-31T12:02:29.440Z,61.75
2022-12-31T12:05:08.413Z,62.56
2022-12-31T12:07:40.603Z,61.92
2022-12-31T12:10:22.433Z,61.83
2022-12-31T12:12:52.624Z,61.33
2022-12-31T12:15:28.266Z,61.14
2022-12-31T12:17:59.406Z,62.29
2022-12-31T12:20:33.663Z,61.39
2022-12-31T12:23:14.492Z,61.40
2022-12-31T12:25:45.537Z,61.52
2022-12-31T12:28:25.124Z,59.90
2022-12-31T12:31:00.270Z,61.69
2022-12-31T12:33:30.873Z,62.25
2022-12-31T12:36:10.206Z,60.92
2022-12-31T12:38:40.450Z,62.34
2022-12-31T12:41:13.679Z,61.74
2022-12-31T12:43:42.134Z,62.23
2022-12-31T12:46:22.091Z,62.41
2022-12-31T12:48:57.164Z,62.26
2022-12-31T12:51:38.748Z,60.83
2022-12-31T12:54:20.755Z,61.57
2022-12-31T12:56:57.124Z,61.43
2022-12-31T12:59:50.573Z,62.13
2022-12-31T13:02:38.766Z,61.19
2022-12-31T13:05:25.957Z,60.67
2022-12-31T13:08:07.535Z,61.62
2022-12-31T13:10:53.016Z,61.89
2022-12-31T13:13:30.534Z,60.99
2022-12-31T13:16:06.391Z,60.65
2022-12-31T13:18:45.681Z,61.07
2022-12-31T13:21:33.243Z,61.10
2022-12-31T13:24:09.052Z,60.86
2022-12-31T13:26:46.457Z,59.75
2022-12-31T13:29:18.435Z,59.89
2022-12-31T13:31:48.581Z,59.64
2022-12-31T13:34:20.492Z,60.46
2022-12-31T13:36:51.888Z,60.17
2022-12-31T13:39:24.647Z,60.51
2022-12-31T13:42:00.590Z,60.98
2022-12-31T13:44:32.302Z,61.79
2022-12-31T13:47:07.773Z,60.58
2022-12-31T13:49:43.800Z,60.77
2022-12-31T13:52:26.091Z,59.84
2022-12-31T13:55:01.149Z,59.89
2022-12-31T13:57:42.061Z,61.45
2022-12-31T14:00:21.775Z,61.38
2022-12-31T14:03:03.904Z,60.77
2022-12-31T14:05:37.375Z,61.19
2022-12-31T14:08:07.744Z,61.35
2022-12-31T14:10:53.286Z,61.59
2022-12-31T14:13:38.276Z,60.41
2022-12-31T14:16:19.885Z,60.72
2022-12-31T14:18:56.381Z,60.85
2022-12-31T14:21:29.770Z,60.79
2022-12-31T14:24:06.641Z,60.61
2022-12-31T14:26:39.439Z,60.95
2022-12-31T14:29:20.339Z,60.51
2022-12-31T14:32:21.782Z,60.05
2022-12-31T14:35:01.114Z,60.49
2022-12-31T14:37:39.221Z,60.83
2022-12-31T14:40:19.583Z,60.31
2022-12-31T14:43:02.320Z,60.10
2022-12-31T14:45:46.692Z,60.58
2022-12-31T14:48:30.217Z,60.90
2022-12-31T14:51:01.976Z,60.25
2022-12-31T14:53:31.760Z,60.59
2022-12-31T14:56:02.681Z,60.24
2022-12-31T14:58:36.768Z,59.38
2022-12-31T15:01:22.575Z,59.24
2022-12-31T15:03:51.456Z,59.99
2022-12-31T15:06:39.085Z,59.72
2022-12-31T15:09:19.301Z,59.69
2022-12-31T15:12:11.020Z,60.14
2022-12-31T15:14:55.161Z,59.97
2022-12-31T15:17:37.490Z,60.61
2022-12-31T15:20:20.665Z,60.58
2022-12-31T15:22:50.401Z,60.50
2022-12-31T15:25:35.227Z,60.53
2022-12-31T15:28:09.702Z,60.05
2022-12-31T15:30:43.301Z,60.21
2022-12-31T15:33:21.311Z,60.28
2022-12-31T15:35:52.666Z,60.32
2022-12-31T15:38:33.715Z,59.96
2022-12-31T15:41:13.433Z,60.09
2022-12-31T15:43:48.408Z,60.06
2022-12-31T15:46:20.080Z,60.44
2022-12-31T15:49:03.655Z,60.80
2022-12-31T15:51:43.755Z,60.39
2022-12-31T15:54:24.287Z,60.64
2022-12-31T15:59:24.708Z,60.73
2022-12-31T16:01:56.189Z,60.95
2022-12-31T16:04:29.268Z,60.56
2022-12-31T16:07:01.509Z,60.01
2022-12-31T16:09:34.240Z,60.53
2022-12-31T16:12:09.257Z,60.31
2022-12-31T16:14:39.438Z,60.41
2022-12-31T16:17:08.774Z,60.05
2022-12-31T16:19:46.359Z,59.66
2022-12-31T16:22:16.913Z,59.29
2022-12-31T16:25:19.529Z,58.75
2022-12-31T16:27:36.764Z,59.94
2022-12-31T16:30:08.531Z,59.13
2022-12-31T16:32:39.849Z,59.19
2022-12-31T16:35:24.544Z,58.59
2022-12-31T16:38:03.760Z,58.31
2022-12-31T16:40:32.379Z,59.65
2022-12-31T16:43:01.598Z,59.45
2022-12-31T16:45:33.477Z,58.82
2022-12-31T16:48:16.644Z,59.22
2022-12-31T16:50:48.332Z,58.89
2022-12-31T16:53:20.987Z,58.78
2022-12-31T16:55:55.257Z,59.56
2022-12-31T16:58:29.612Z,59.18
2022-12-31T17:01:08.576Z,59.13
2022-12-31T17:03:40.113Z,58.93
2022-12-31T17:06:16.292Z,59.27
2022-12-31T17:08:46.822Z,59.49
2022-12-31T17:11:25.340Z,59.83
2022-12-31T17:13:57.031Z,58.80
2022-12-31T17:16:26.243Z,59.51
2022-12-31T17:18:54.942Z,59.41
2022-12-31T17:21:28.761Z,59.18
2022-12-31T17:24:01.784Z,59.88
2022-12-31T17:26:32.228Z,60.11
2022-12-31T17:29:02.646Z,59.72
2022-12-31T17:31:34.520Z,59.23
2022-12-31T17:34:20.455Z,59.85
2022-12-31T17:37:02.262Z,59.64
2022-12-31T17:39:44.268Z,59.45
2022-12-31T17:42:13.811Z,59.03
2022-12-31T17:44:44.555Z,59.14
2022-12-31T17:47:15.000Z,59.35
2022-12-31T17:49:46.831Z,59.48
2022-12-31T17:52:17.839Z,60.11
2022-12-31T17:54:45.961Z,59.39
2022-12-31T17:57:26.001Z,58.78
2022-12-31T17:59:54.644Z,59.32
2022-12-31T18:02:22.910Z,60.12
2022-12-31T18:04:51.576Z,60.62
2022-12-31T18:07:21.255Z,60.68
2022-12-31T18:09:49.475Z,60.85
2022-12-31T18:12:18.679Z,59.84
2022-12-31T18:14:47.059Z,59.40
2022-12-31T18:17:17.653Z,59.88
2022-12-31T18:20:04.106Z,60.19
2022-12-31T18:22:36.180Z,59.61
2022-12-31T18:25:06.861Z,59.59
2022-12-31T18:27:35.590Z,60.20
2022-12-31T18:30:06.028Z,59.37
2022-12-31T18:32:36.144Z,59.84
2022-12-31T18:35:05.040Z,58.88
2022-12-31T18:37:36.504Z,59.32
2022-12-31T18:40:06.128Z,60.24
2022-12-31T18:42:34.266Z,59.71
2022-12-31T18:45:02.659Z,60.41
2022-12-31T18:47:37.327Z,60.31
2022-12-31T18:50:07.590Z,60.32
2022-12-31T18:52:37.024Z,59.65
2022-12-31T18:55:23.612Z,59.90
2022-12-31T18:57:53.148Z,60.72
2022-12-31T19:00:21.475Z,60.69
2022-12-31T19:02:49.900Z,60.20
2022-12-31T19:05:25.540Z,60.61
2022-12-31T19:07:55.247Z,60.41
2022-12-31T19:10:25.256Z,59.80
2022-12-31T19:12:53.894Z,60.12
2022-12-31T19:15:27.366Z,59.62
2022-12-31T19:17:55.797Z,59.66
2022-12-31T19:20:24.877Z,59.32
2022-12-31T19:22:53.677Z,59.71
2022-12-31T19:25:25.035Z,59.33
2022-12-31T19:27:54.448Z,59.97
2022-12-31T19:30:25.077Z,60.38
2022-12-31T19:32:53.799Z,59.72
2022-12-31T19:35:22.869Z,58.97
2022-12-31T19:37:53.782Z,58.50
2022-12-31T19:40:27.289Z,59.23
2022-12-31T19:42:56.345Z,59.31
2022-12-31T19:45:26.466Z,59.20
2022-12-31T19:47:56.158Z,59.17
2022-12-31T19:50:26.870Z,58.94
2022-12-31T19:52:58.585Z,58.74
2022-12-31T19:55:28.453Z,59.06
2022-12-31T19:57:57.076Z,58.94
2022-12-31T20:00:25.282Z,59.06
2022-12-31T20:02:53.483Z,59.61
2022-12-31T20:05:22.162Z,58.56
2022-12-31T20:07:50.587Z,58.94
2022-12-31T20:10:18.818Z,59.14
2022-12-31T20:12:48.887Z,58.70
2022-12-31T20:15:17.317Z,58.91
2022-12-31T20:17:45.736Z,59.38
2022-12-31T20:20:14.356Z,58.71
2022-12-31T20:22:42.540Z,59.46
2022-12-31T20:25:10.915Z,59.41
2022-12-31T20:27:39.862Z,59.67
2022-12-31T20:30:12.824Z,60.02
2022-12-31T20:32:41.130Z,60.34
2022-12-31T20:35:09.622Z,60.97
2022-12-31T20:37:37.885Z,59.81
2022-12-31T20:40:07.240Z,60.03
2022-12-31T20:42:36.670Z,59.78
2022-12-31T20:45:05.404Z,60.24
2022-12-31T20:47:35.468Z,59.70
2022-12-31T20:50:12.204Z,59.66
2022-12-31T20:52:40.889Z,59.33
2022-12-31T20:55:10.147Z,60.03
2022-12-31T20:57:38.851Z,58.86
2022-12-31T21:00:08.845Z,59.67
2022-12-31T21:02:42.609Z,60.39
2022-12-31T21:05:12.172Z,59.88
2022-12-31T21:07:40.641Z,60.80
2022-12-31T21:10:09.569Z,60.35
2022-12-31T21:12:53.264Z,59.83
2022-12-31T21:15:21.988Z,59.50
2022-12-31T21:17:51.754Z,60.50
2022-12-31T21:20:20.178Z,59.76
2022-12-31T21:22:48.313Z,59.31
2022-12-31T21:25:16.648Z,59.33
2022-12-31T21:27:45.139Z,59.03
2022-12-31T21:30:19.271Z,58.73
2022-12-31T21:32:48.008Z,59.80
2022-12-31T21:38:08.451Z,59.36
2022-12-31T21:40:36.864Z,58.77
2022-12-31T21:43:05.320Z,59.04
2022-12-31T21:45:33.901Z,58.80
2022-12-31T21:48:20.064Z,59.25
2022-12-31T21:50:51.461Z,58.98
2022-12-31T21:53:25.382Z,58.18
2022-12-31T21:56:11.604Z,58.13
2022-12-31T21:58:41.389Z,57.52
2022-12-31T22:01:34.110Z,57.12
2022-12-31T22:04:02.714Z,56.36
2022-12-31T22:06:34.476Z,57.37
2022-12-31T22:09:03.085Z,57.66
2022-12-31T22:11:31.443Z,57.19
2022-12-31T22:13:59.908Z,57.36
2022-12-31T22:16:28.230Z,57.16
2022-12-31T22:18:57.236Z,57.43
2022-12-31T22:21:26.828Z,57.06
2022-12-31T22:23:58.757Z,57.11
2022-12-31T22:26:29.884Z,56.76
2022-12-31T22:28:59.778Z,56.38
2022-12-31T22:31:31.401Z,55.32
2022-12-31T22:34:02.131Z,55.43
2022-12-31T22:36:31.015Z,55.25
2022-12-31T22:39:01.220Z,55.47
2022-12-31T22:41:29.987Z,55.33
2022-12-31T22:44:04.227Z,54.45
2022-12-31T22:46:35.500Z,54.70
2022-12-31T22:49:05.854Z,54.26
2022-12-31T22:51:57.197Z,54.61
2022-12-31T22:54:24.176Z,54.07
2022-12-31T22:56:53.150Z,54.01
2022-12-31T22:59:21.226Z,53.54
2022-12-31T23:01:49.496Z,52.60
2022-12-31T23:04:17.931Z,52.55
2022-12-31T23:06:47.445Z,52.83
2022-12-31T23:09:35.131Z,51.81
2022-12-31T23:12:06.286Z,52.65
2022-12-31T23:14:52.266Z,52.11
2022-12-31T23:17:41.338Z,51.61
2022-12-31T23:20:32.191Z,51.07
2022-12-31T23:23:12.574Z,51.67
2022-12-31T23:25:42.812Z,52.59
2022-12-31T23:28:15.127Z,52.15
2022-12-31T23:30:44.872Z,52.73
2022-12-31T23:33:16.623Z,52.57
2022-12-31T23:35:45.318Z,52.56
2022-12-31T23:38:14.830Z,52.54
2022-12-31T23:40:43.276Z,51.99
2022-12-31T23:43:21.428Z,53.29
2022-12-31T23:45:51.312Z,52.78
2022-12-31T23:48:19.588Z,52.90
2022-12-31T23:50:53.548Z,53.14
2022-12-31T23:53:23.723Z,53.23
2022-12-31T23:55:52.606Z,53.68
2022-12-31T23:58:23.240Z,53.84
